Time;durP1;ratioP1;P1;durP2;ratioP2;P2;SDS_P1;SDS_P2;PMS_P1;PMS_P2;Temp;Humidity;BMP_temperature;BMP_pressure;BME280_temperature;BME280_humidity;BME280_pressure;Samples;Min_cycle;Max_cycle;Signal;HPM_P1;HPM_P2
2022/05/26 00:00:32;;;;;;;;;19.25;18.75;;;;;22.28;66.56;101232.59;146610;565;45020;-79
2022/05/26 00:03:24;;;;;;;;;22.75;20.50;;;;;22.25;68.16;101232.56;146607;567;46012;-79
2022/05/26 00:06:19;;;;;;;;;20.00;18.00;;;;;22.15;67.22;101218.34;146606;567;46020;-80
2022/05/26 00:09:11;;;;;;;;;19.75;19.25;;;;;22.03;67.17;101218.19;146607;573;46013;-79
2022/05/26 00:12:03;;;;;;;;;16.25;15.25;;;;;21.96;66.95;101219.84;146611;617;46010;-85
2022/05/26 00:14:55;;;;;;;;;16.75;16.75;;;;;21.87;66.89;101217.13;146608;580;45016;-81
2022/05/26 00:17:48;;;;;;;;;16.75;16.75;;;;;21.85;66.90;101213.56;146606;684;46011;-81
2022/05/26 00:20:39;;;;;;;;;18.50;18.00;;;;;21.83;67.36;101210.88;146605;577;47012;-79
2022/05/26 00:23:32;;;;;;;;;14.75;14.00;;;;;21.75;66.83;101206.41;146606;576;46020;-80
2022/05/26 00:26:23;;;;;;;;;15.50;15.50;;;;;21.72;66.44;101207.25;146603;574;46916;-80
2022/05/26 00:29:16;;;;;;;;;16.75;15.00;;;;;21.71;66.65;101199.28;146606;573;46010;-79
2022/05/26 00:32:08;;;;;;;;;16.00;15.00;;;;;21.67;66.26;101201.88;146608;578;46016;-79
2022/05/26 00:35:01;;;;;;;;;16.75;15.75;;;;;21.60;66.75;101204.44;146610;608;45020;-81
2022/05/26 00:37:53;;;;;;;;;16.50;15.00;;;;;21.54;66.78;101205.22;146606;569;46012;-79
2022/05/26 00:40:48;;;;;;;;;18.00;17.00;;;;;21.51;66.69;101204.31;146608;640;46021;-81
2022/05/26 00:43:48;;;;;;;;;17.25;16.00;;;;;21.48;66.69;101199.87;146604;567;46016;-81
2022/05/26 00:46:57;;;;;;;;;19.00;16.75;;;;;21.43;67.24;101197.19;146608;584;46010;-81
2022/05/26 00:49:57;;;;;;;;;21.50;21.00;;;;;21.36;68.16;101200.56;146607;586;46016;-80
2022/05/26 00:53:03;;;;;;;;;18.00;17.00;;;;;21.31;66.91;101182.84;146607;614;46020;-79
2022/05/26 00:56:05;;;;;;;;;23.50;22.75;;;;;21.29;68.72;101198.69;146606;580;46014;-73
2022/05/26 00:59:04;;;;;;;;;23.00;19.00;;;;;21.27;68.09;101192.47;146606;569;46028;-74
2022/05/26 01:01:58;;;;;;;;;18.25;17.75;;;;;21.22;69.57;101192.44;146607;616;46016;-80
2022/05/26 01:05:01;;;;;;;;;21.75;19.75;;;;;21.14;69.58;101185.25;146607;653;46020;-79
2022/05/26 01:07:53;;;;;;;;;23.75;22.50;;;;;21.07;69.01;101186.91;146606;645;46015;-80
2022/05/26 01:10:45;;;;;;;;;17.25;17.00;;;;;21.05;68.54;101195.66;146606;579;46021;-81
2022/05/26 01:13:46;;;;;;;;;21.25;19.00;;;;;21.04;68.70;101199.16;146605;595;46014;-81
2022/05/26 01:17:12;;;;;;;;;18.50;17.75;;;;;21.03;68.16;101193.03;146607;607;46010;-70
2022/05/26 01:20:17;;;;;;;;;22.25;21.25;;;;;20.99;69.28;101191.16;146607;631;46012;-83
2022/05/26 01:24:04;;;;;;;;;22.00;20.25;;;;;19.70;68.07;100986.16;146609;575;46010;-84
2022/05/26 01:27:30;;;;;;;;;21.75;21.25;;;;;20.83;68.75;101197.06;146608;601;45022;-84
2022/05/26 01:30:54;;;;;;;;;23.25;21.25;;;;;20.72;69.16;101186.34;146609;592;46020;-79
2022/05/26 01:34:39;;;;;;;;;21.50;19.00;;;;;20.64;68.53;101172.16;146600;709;47913;-79
2022/05/26 01:38:11;;;;;;;;;24.50;21.50;;;;;20.69;68.70;101200.34;146608;611;46021;-79
2022/05/26 01:41:24;;;;;;;;;26.50;22.25;;;;;18.88;69.87;100873.28;146605;572;46016;-79
2022/05/26 01:44:46;;;;;;;;;21.75;21.50;;;;;20.62;69.47;101182.63;146606;563;46020;-79
2022/05/26 01:48:20;;;;;;;;;24.00;23.50;;;;;19.57;68.48;101002.56;146606;593;46016;-80
2022/05/26 01:51:41;;;;;;;;;26.50;24.00;;;;;19.87;70.04;101056.63;146606;625;46020;-76
2022/05/26 01:55:02;;;;;;;;;21.25;21.25;;;;;20.50;69.75;101177.16;146603;575;46017;-74
2022/05/26 01:58:05;;;;;;;;;19.00;18.25;;;;;20.43;71.36;101178.75;146605;565;46020;-87
2022/05/26 02:01:00;;;;;;;;;21.50;20.00;;;;;20.38;69.67;101177.81;146606;637;46014;-83
2022/05/26 02:03:56;;;;;;;;;18.25;15.75;;;;;20.36;70.72;101173.38;146607;642;46010;-79
2022/05/26 02:07:14;;;;;;;;;20.25;19.00;;;;;19.97;68.20;101105.94;146603;601;46016;-78
2022/05/26 02:10:12;;;;;;;;;20.00;17.50;;;;;20.34;69.65;101157.53;146611;607;45023;-68
2022/05/26 02:13:13;;;;;;;;;23.75;17.75;;;;;20.37;69.16;101161.97;146608;581;46012;-68
2022/05/26 02:16:17;;;;;;;;;22.25;18.75;;;;;20.37;69.80;101172.50;146607;572;47011;-78
2022/05/26 02:19:51;;;;;;;;;19.50;18.00;;;;;20.33;68.32;101178.56;146605;622;46016;-70
2022/05/26 02:22:52;;;;;;;;;18.75;17.25;;;;;20.30;68.80;101177.66;146607;593;46010;-70
2022/05/26 02:25:45;;;;;;;;;18.50;17.50;;;;;20.26;68.90;101164.41;146603;570;46016;-69
2022/05/26 02:31:50;;;;;;;;;20.25;18.75;;;;;20.28;69.60;101181.12;146604;617;47012;-78
2022/05/26 02:34:45;;;;;;;;;26.75;22.00;;;;;20.26;69.92;101175.84;146608;649;46010;-78
2022/05/26 02:37:39;;;;;;;;;23.75;23.75;;;;;20.25;70.91;101173.19;146608;599;45043;-74
2022/05/26 02:40:33;;;;;;;;;22.25;19.25;;;;;20.21;70.23;101176.59;146608;581;46010;-73
2022/05/26 02:43:34;;;;;;;;;24.25;23.25;;;;;20.15;71.15;101174.72;146607;569;46016;-73
2022/05/26 02:46:58;;;;;;;;;22.25;22.25;;;;;20.07;69.77;101168.44;146610;605;46011;-73
2022/05/26 02:50:54;;;;;;;;;25.25;21.25;;;;;19.72;69.85;101120.34;146604;587;46016;-77
2022/05/26 02:53:55;;;;;;;;;21.75;20.75;;;;;20.01;70.10;101170.97;146605;626;46021;-79
2022/05/26 02:57:18;;;;;;;;;21.50;20.00;;;;;20.05;69.34;101170.16;146608;593;46012;-82
2022/05/26 03:00:36;;;;;;;;;23.00;21.50;;;;;20.10;69.53;101175.53;146608;571;46020;-73
2022/05/26 03:03:44;;;;;;;;;21.25;20.00;;;;;20.10;71.13;101172.87;146605;653;46016;-81
2022/05/26 03:06:46;;;;;;;;;19.50;19.50;;;;;20.10;70.57;101172.87;146608;645;46010;-80
2022/05/26 03:09:40;;;;;;;;;24.00;22.00;;;;;20.07;71.09;101169.31;146605;582;46012;-81
2022/05/26 03:12:35;;;;;;;;;22.50;19.50;;;;;20.09;71.72;101166.72;146609;616;46010;-81
2022/05/26 03:15:27;;;;;;;;;24.50;18.25;;;;;20.10;70.84;101173.78;146607;572;45916;-73
2022/05/26 03:18:19;;;;;;;;;21.50;17.50;;;;;20.11;69.86;101172.03;146607;567;46020;-73
2022/05/26 03:21:11;;;;;;;;;16.75;16.75;;;;;20.11;69.53;101170.28;146607;574;46014;-81
2022/05/26 03:24:04;;;;;;;;;9.75;7.75;;;;;20.18;69.76;101180.06;146605;586;46021;-75
2022/05/26 03:26:56;;;;;;;;;23.50;22.25;;;;;20.24;69.02;101167.00;146604;571;46016;-75
2022/05/26 03:29:48;;;;;;;;;20.50;19.50;;;;;20.30;70.68;101180.28;146607;584;46020;-76
2022/05/26 03:32:41;;;;;;;;;20.75;19.25;;;;;20.35;69.15;101184.78;146603;581;46030;-77
2022/05/26 03:41:54;;;;;;;;;21.00;19.25;;;;;20.46;68.81;101197.25;146607;632;46020;-74
2022/05/26 03:44:48;;;;;;;;;20.25;19.00;;;;;20.52;68.37;101193.88;146606;592;46014;-81
2022/05/26 03:47:40;;;;;;;;;21.50;19.25;;;;;20.55;69.57;101199.22;146609;564;46010;-77
2022/05/26 03:50:33;;;;;;;;;23.00;19.50;;;;;20.56;68.81;101197.47;146604;584;46016;-78
2022/05/26 03:53:25;;;;;;;;;22.25;21.50;;;;;20.53;69.38;101193.94;146609;597;46010;-83
2022/05/26 03:56:17;;;;;;;;;18.75;18.50;;;;;20.56;69.05;101198.38;146607;663;46012;-73
2022/05/26 03:59:09;;;;;;;;;18.25;18.25;;;;;20.58;69.15;101188.72;146609;633;45020;-72
2022/05/26 04:02:01;;;;;;;;;21.50;21.25;;;;;20.61;69.02;101196.69;146603;578;47915;-73
2022/05/26 04:04:54;;;;;;;;;22.00;20.25;;;;;20.64;68.46;101198.50;146606;644;46020;-72
2022/05/26 04:07:45;;;;;;;;;21.75;21.00;;;;;20.70;68.76;101198.59;146605;595;46012;-72
2022/05/26 04:10:38;;;;;;;;;23.50;22.00;;;;;20.76;69.25;101191.69;146607;587;46010;-85
2022/05/26 04:13:33;;;;;;;;;22.25;21.00;;;;;20.86;68.79;101195.34;146605;586;46015;-75
2022/05/26 04:16:26;;;;;;;;;23.25;22.50;;;;;20.98;68.76;101199.94;146604;638;46916;-78
2022/05/26 04:19:18;;;;;;;;;27.00;24.00;;;;;21.12;69.11;101202.78;146608;609;46012;-77
2022/05/26 04:22:16;;;;;;;;;26.25;24.50;;;;;21.26;68.54;101205.66;146606;564;46021;-73
2022/05/26 04:25:08;;;;;;;;;39.50;29.25;;;;;21.44;68.39;101219.16;146603;563;46016;-77
2022/05/26 04:28:00;;;;;;;;;34.50;30.00;;;;;21.65;68.28;101214.19;146609;579;45039;-77
2022/05/26 04:30:53;;;;;;;;;28.75;27.25;;;;;21.87;67.98;101214.47;146604;612;46017;-77
2022/05/26 04:33:45;;;;;;;;;32.50;29.50;;;;;22.09;67.79;101213.88;146607;596;46020;-77
2022/05/26 04:36:37;;;;;;;;;45.50;36.25;;;;;22.32;66.97;101219.44;146606;593;46012;-78
2022/05/26 04:39:29;;;;;;;;;53.25;38.50;;;;;22.54;67.18;101211.75;146607;564;46010;-77
2022/05/26 04:42:22;;;;;;;;;33.00;30.50;;;;;22.78;66.39;101216.37;146604;563;46915;-84
2022/05/26 04:45:17;;;;;;;;;33.00;28.75;;;;;22.99;66.08;101221.88;146606;574;46021;-80
2022/05/26 04:48:09;;;;;;;;;32.25;28.50;;;;;23.19;65.10;101222.03;146605;709;46012;-81
2022/05/26 04:51:01;;;;;;;;;38.25;30.75;;;;;23.37;64.94;101217.75;146607;653;46021;-85
2022/05/26 04:53:54;;;;;;;;;36.25;30.00;;;;;23.51;64.64;101216.94;146605;574;46016;-82
2022/05/26 04:56:46;;;;;;;;;38.25;30.00;;;;;23.68;64.06;101224.13;146608;564;45047;-81
2022/05/26 04:59:39;;;;;;;;;32.75;27.75;;;;;23.83;64.17;101218.03;146603;589;46017;-81
2022/05/26 05:02:33;;;;;;;;;33.50;29.50;;;;;24.03;63.69;101229.59;146607;565;46010;-72
2022/05/26 05:05:25;;;;;;;;;30.75;27.75;;;;;24.19;63.61;101220.81;146605;565;46916;-72
2022/05/26 05:08:18;;;;;;;;;30.75;29.25;;;;;24.36;62.72;101230.56;146607;603;46026;-72
2022/05/26 05:11:10;;;;;;;;;31.75;28.75;;;;;24.48;62.32;101235.06;146605;564;46915;-71
2022/05/26 05:14:07;;;;;;;;;33.75;29.25;;;;;24.59;62.60;101241.28;146605;598;46021;-72
2022/05/26 05:16:59;;;;;;;;;35.25;31.25;;;;;24.68;61.53;101238.66;146604;573;46016;-72
2022/05/26 05:19:53;;;;;;;;;35.75;30.50;;;;;24.73;61.70;101242.16;146604;617;46021;-73
2022/05/26 05:22:49;;;;;;;;;33.50;31.00;;;;;24.80;61.48;101238.66;146606;576;46030;-72
2022/05/26 05:25:50;;;;;;;;;36.25;32.75;;;;;24.87;61.03;101245.72;146603;571;46020;-74
2022/05/26 05:28:46;;;;;;;;;31.00;27.75;;;;;25.00;61.63;101243.97;146604;569;46916;-75
2022/05/26 05:31:55;;;;;;;;;30.50;28.50;;;;;25.18;60.83;101245.78;146609;584;46010;-74
2022/05/26 05:34:56;;;;;;;;;35.00;29.75;;;;;25.35;60.64;101237.78;146604;574;46017;-80
2022/05/26 05:37:48;;;;;;;;;31.50;27.75;;;;;25.47;59.24;101240.41;146607;583;46020;-78
2022/05/26 05:40:40;;;;;;;;;25.75;25.50;;;;;25.54;60.12;101244.81;146607;688;46012;-74
2022/05/26 05:43:37;;;;;;;;;26.75;26.25;;;;;25.66;59.26;101241.25;146609;575;46010;-77
2022/05/26 05:46:34;;;;;;;;;32.75;29.00;;;;;25.75;58.92;101240.34;146605;629;46915;-78
2022/05/26 05:49:28;;;;;;;;;26.75;25.50;;;;;25.87;58.35;101243.00;146607;618;46010;-74
2022/05/26 05:52:27;;;;;;;;;31.75;28.25;;;;;26.01;58.32;101257.13;146605;609;46915;-77
2022/05/26 05:55:19;;;;;;;;;30.75;28.50;;;;;26.16;58.78;101244.66;146605;580;46915;-75
2022/05/26 05:58:11;;;;;;;;;32.00;28.75;;;;;26.36;58.71;101245.44;146605;639;46013;-76
2022/05/26 06:01:03;;;;;;;;;31.00;26.75;;;;;26.60;58.27;101247.09;146608;606;46020;-76
2022/05/26 06:03:55;;;;;;;;;29.25;25.50;;;;;26.81;57.55;101245.19;146607;586;46012;-82
2022/05/26 06:06:48;;;;;;;;;26.75;26.00;;;;;26.98;57.00;101248.59;146606;601;46010;-81
2022/05/26 06:09:40;;;;;;;;;32.00;28.00;;;;;27.12;56.98;101245.81;146602;582;46016;-79
2022/05/26 06:12:32;;;;;;;;;22.00;21.00;;;;;27.25;56.74;101238.62;146604;580;47010;-79
2022/05/26 06:15:25;;;;;;;;;24.25;23.25;;;;;27.30;55.65;101239.47;146603;589;47012;-79
2022/05/26 06:18:26;;;;;;;;;28.00;23.00;;;;;27.33;56.42;101234.13;146604;580;47010;-78
2022/05/26 06:25:11;;;;;;;;;25.50;23.00;;;;;27.36;57.44;101231.44;146603;563;46022;-75
2022/05/26 06:31:33;;;;;;;;;21.25;19.75;;;;;27.51;57.57;101225.94;146605;673;47020;-76
2022/05/26 06:37:38;;;;;;;;;23.25;20.25;;;;;27.71;57.30;101214.19;146603;581;47022;-73
2022/05/26 06:40:31;;;;;;;;;22.75;20.50;;;;;27.86;57.02;101214.03;146601;612;47016;-75
2022/05/26 06:43:26;;;;;;;;;24.50;21.25;;;;;28.00;56.55;101205.84;146606;565;46010;-75
2022/05/26 06:50:12;;;;;;;;;28.75;24.50;;;;;28.20;55.88;101214.47;146601;670;47010;-75
2022/05/26 06:53:25;;;;;;;;;23.25;21.25;;;;;28.20;55.26;101214.47;146601;558;46016;-76
2022/05/26 06:56:26;;;;;;;;;26.00;25.25;;;;;28.05;56.01;101210.22;146608;570;46020;-76
2022/05/26 07:03:11;;;;;;;;;25.00;20.25;;;;;27.85;56.96;101222.91;146603;578;47020;-75
2022/05/26 07:06:26;;;;;;;;;26.25;23.75;;;;;27.84;56.90;101230.03;146603;594;47012;-76
2022/05/26 07:13:24;;;;;;;;;23.75;22.00;;;;;28.21;56.81;101226.00;146602;617;46919;-75
2022/05/26 07:16:25;;;;;;;;;22.00;19.00;;;;;28.30;56.70;101224.09;146604;608;47012;-75
2022/05/26 07:19:25;;;;;;;;;29.50;25.50;;;;;28.42;56.34;101228.41;146603;608;46034;-75
2022/05/26 07:26:24;;;;;;;;;20.75;20.00;;;;;28.63;55.93;101215.63;146598;579;46016;-76
2022/05/26 07:29:25;;;;;;;;;34.50;29.25;;;;;28.70;56.05;101220.88;146600;597;46025;-75
2022/05/26 07:32:26;;;;;;;;;23.50;22.75;;;;;28.86;55.58;101223.28;146599;565;46016;-75
2022/05/26 07:35:25;;;;;;;;;21.00;21.00;;;;;29.00;56.06;101235.50;146603;588;46021;-75
2022/05/26 07:41:36;;;;;;;;;21.25;20.00;;;;;29.35;55.17;101236.72;146605;578;46012;-75
2022/05/26 07:44:29;;;;;;;;;20.75;20.75;;;;;29.53;54.20;101238.13;146596;598;47012;-76
2022/05/26 07:47:26;;;;;;;;;22.00;21.25;;;;;29.65;54.03;101245.06;146604;570;46010;-74
2022/05/26 07:54:11;;;;;;;;;20.50;18.75;;;;;29.75;53.38;101244.00;146601;590;46022;-76
2022/05/26 07:57:29;;;;;;;;;28.75;24.00;;;;;29.76;53.96;101247.56;146595;645;46016;-75
2022/05/26 08:00:24;;;;;;;;;24.00;23.50;;;;;29.83;53.66;101252.72;146605;597;46020;-74
2022/05/26 08:03:16;;;;;;;;;24.25;23.75;;;;;29.92;52.29;101249.88;146599;588;46017;-75
2022/05/26 08:06:26;;;;;;;;;23.00;19.75;;;;;29.98;53.34;101250.66;146598;563;47020;-74
2022/05/26 08:09:21;;;;;;;;;24.25;23.00;;;;;30.09;52.28;101257.56;146600;613;46016;-74
2022/05/26 08:12:15;;;;;;;;;26.25;24.50;;;;;30.13;51.53;101253.00;146602;622;46021;-75
2022/05/26 08:15:07;;;;;;;;;19.25;18.50;;;;;30.14;52.25;101255.62;146601;625;46016;-75
2022/05/26 08:21:28;;;;;;;;;21.50;21.00;;;;;30.36;51.29;101240.03;146598;686;46918;-74
2022/05/26 08:24:26;;;;;;;;;26.50;23.50;;;;;30.46;51.51;101235.34;146604;564;46010;-75
2022/05/26 08:27:18;;;;;;;;;21.00;20.75;;;;;30.53;51.60;101246.78;146625;612;45876;-75
2022/05/26 08:30:12;;;;;;;;;23.00;21.75;;;;;30.63;51.16;101245.69;146627;575;45020;-74
2022/05/26 08:33:25;;;;;;;;;20.75;18.50;;;;;30.77;50.94;101245.31;146623;592;46013;-75
2022/05/26 08:36:28;;;;;;;;;23.50;22.75;;;;;30.83;50.78;101243.41;146624;577;45020;-74
2022/05/26 08:39:22;;;;;;;;;25.00;21.75;;;;;30.92;50.43;101239.63;146624;630;45017;-74
2022/05/26 08:42:22;;;;;;;;;22.25;21.00;;;;;31.04;50.17;101241.13;146625;572;46016;-75
2022/05/26 08:45:26;;;;;;;;;23.00;21.75;;;;;31.20;50.31;101230.88;146626;593;46012;-74
2022/05/26 08:53:20;;;;;;;;;24.50;23.25;;;;;31.69;48.56;101241.19;146627;585;46012;-74
2022/05/26 08:56:29;;;;;;;;;23.00;18.50;;;;;31.89;49.36;101245.12;146625;565;46010;-74
2022/05/26 08:59:31;;;;;;;;;28.00;24.25;;;;;32.07;48.00;101249.94;146626;664;45016;-74
2022/05/26 09:02:46;;;;;;;;;25.50;23.75;;;;;32.19;47.96;101238.84;146626;580;45021;-75
2022/05/26 09:05:49;;;;;;;;;18.50;18.50;;;;;32.36;46.47;101232.94;146622;633;45016;-74
2022/05/26 09:15:39;;;;;;;;;16.75;16.00;;;;;32.11;43.91;101248.91;146626;571;45020;-73
2022/05/26 09:18:31;;;;;;;;;17.75;17.75;;;;;31.84;45.13;101241.66;146625;618;46016;-73
2022/05/26 09:21:34;;;;;;;;;17.25;16.25;;;;;31.64;45.31;101247.59;146628;579;45010;-74
2022/05/26 09:24:39;;;;;;;;;21.50;20.50;;;;;31.41;46.48;101249.12;146622;576;45016;-73
2022/05/26 09:27:37;;;;;;;;;20.75;19.50;;;;;31.21;46.09;101249.59;146622;572;46020;-73
2022/05/26 09:30:36;;;;;;;;;19.00;17.25;;;;;30.93;45.31;101241.38;146626;589;45015;-73
2022/05/26 09:33:35;;;;;;;;;23.50;21.00;;;;;30.90;48.22;101243.25;146628;608;46010;-76
2022/05/26 09:36:36;;;;;;;;;23.25;18.00;;;;;30.96;46.90;101252.00;146626;620;45016;-74
2022/05/26 09:39:42;;;;;;;;;20.50;18.25;;;;;30.98;45.53;101252.88;146626;586;46010;-74
2022/05/26 09:42:34;;;;;;;;;22.25;19.25;;;;;30.97;46.09;101255.59;146623;565;46916;-74
2022/05/26 09:45:26;;;;;;;;;20.00;18.00;;;;;30.87;45.67;101248.69;146626;584;45020;-75
2022/05/26 09:48:40;;;;;;;;;18.25;18.00;;;;;30.69;45.13;101242.84;146624;581;47012;-75
2022/05/26 09:51:46;;;;;;;;;20.00;17.75;;;;;30.56;44.82;101238.69;146625;591;46010;-74
2022/05/26 09:54:38;;;;;;;;;18.25;17.50;;;;;30.51;44.75;101240.59;146622;601;46010;-74
2022/05/26 09:57:30;;;;;;;;;21.00;18.00;;;;;30.53;45.48;101236.06;146626;609;45020;-74
2022/05/26 10:00:42;;;;;;;;;16.25;16.25;;;;;30.49;45.05;101253.13;146625;581;46012;-74
2022/05/26 10:08:23;;;;;;;;;17.00;16.75;;;;;28.81;45.45;100967.12;146622;671;46012;-73
2022/05/26 10:12:19;;;;;;;;;17.75;15.50;;;;;30.52;44.90;101245.03;146623;566;46010;-73
2022/05/26 10:15:44;;;;;;;;;17.75;17.25;;;;;30.66;47.28;101232.22;146625;620;46012;-75
2022/05/26 10:19:20;;;;;;;;;20.75;19.00;;;;;30.71;46.00;101232.97;146626;608;45020;-74
2022/05/26 10:22:52;;;;;;;;;20.00;17.50;;;;;30.76;45.76;101231.06;146629;577;45034;-74
2022/05/26 10:26:20;;;;;;;;;18.00;18.00;;;;;30.92;45.56;101233.41;146619;571;45049;-74
2022/05/26 10:29:43;;;;;;;;;20.50;18.75;;;;;31.05;43.88;101234.84;146605;628;47030;-74
2022/05/26 10:33:21;;;;;;;;;17.50;16.75;;;;;31.19;46.03;101226.47;146607;620;46020;-73
2022/05/26 10:37:21;;;;;;;;;19.25;19.00;;;;;31.22;43.01;101231.75;146606;565;46016;-74
2022/05/26 10:41:20;;;;;;;;;21.25;18.25;;;;;30.55;44.29;101105.81;146606;571;47010;-74
2022/05/26 10:44:45;;;;;;;;;15.75;15.75;;;;;31.24;42.78;101225.41;146601;627;47012;-74
2022/05/26 10:51:47;;;;;;;;;17.00;14.50;;;;;31.12;43.53;101223.03;146602;585;47016;-74
2022/05/26 10:55:20;;;;;;;;;16.00;15.25;;;;;30.90;42.47;101208.44;146604;570;46021;-74
2022/05/26 10:58:37;;;;;;;;;14.25;14.25;;;;;30.47;43.43;101137.22;146604;607;47012;-73
2022/05/26 11:02:21;;;;;;;;;13.50;12.50;;;;;31.08;42.88;101212.47;146608;583;46012;-73
2022/05/26 11:17:42;;;;;;;;;14.50;12.50;;;;;31.41;42.29;101211.59;146605;588;46023;-74
2022/05/26 11:20:43;;;;;;;;;11.75;11.00;;;;;31.37;42.45;101200.97;146599;569;46016;-76
2022/05/26 11:27:47;;;;;;;;;13.25;13.25;;;;;31.42;43.10;101191.03;146622;569;45917;-74
2022/05/26 11:37:45;;;;;;;;;13.00;13.00;;;;;31.67;41.15;101191.22;146627;602;45021;-75
2022/05/26 11:40:56;;;;;;;;;9.75;9.00;;;;;31.62;39.74;101195.81;146625;622;46010;-72
2022/05/26 11:44:21;;;;;;;;;11.25;11.25;;;;;31.51;41.03;101183.59;146621;639;46020;-72
2022/05/26 11:47:50;;;;;;;;;12.75;12.00;;;;;31.40;41.17;101163.38;146622;570;46012;-73
2022/05/26 11:51:21;;;;;;;;;11.75;10.25;;;;;31.62;42.02;101179.72;146628;579;46012;-74
2022/05/26 11:54:55;;;;;;;;;12.25;11.00;;;;;31.56;39.39;101178.12;146624;632;46012;-72
2022/05/26 12:01:48;;;;;;;;;12.00;12.00;;;;;31.67;40.24;101173.31;146629;630;45012;-75
2022/05/26 12:04:49;;;;;;;;;13.75;13.00;;;;;31.64;40.65;101168.03;146627;586;45020;-75
2022/05/26 12:07:45;;;;;;;;;12.00;12.00;;;;;31.59;41.33;101163.72;146625;578;45017;-75
2022/05/26 12:14:29;;;;;;;;;12.50;11.25;;;;;31.43;41.47;101147.22;146621;612;46012;-76
2022/05/26 12:17:58;;;;;;;;;14.00;12.50;;;;;31.48;40.83;101145.28;146626;694;45020;-74
2022/05/26 12:20:51;;;;;;;;;11.75;9.50;;;;;31.48;40.61;101156.03;146623;667;46914;-76
2022/05/26 12:23:43;;;;;;;;;11.50;11.50;;;;;31.46;41.66;101142.66;146626;612;45020;-76
2022/05/26 12:26:56;;;;;;;;;12.25;12.25;;;;;31.46;41.70;101144.44;146608;639;46012;-76
2022/05/26 12:32:36;;;;;;;;;13.25;12.00;;;;;31.40;42.06;101136.59;146607;569;46012;-76
2022/05/26 12:36:01;;;;;;;;;11.25;11.25;;;;;31.53;42.15;101124.63;146613;629;46010;-74
2022/05/26 12:39:37;;;;;;;;;15.75;13.00;;;;;31.62;41.38;101128.78;146611;573;46014;-74
2022/05/26 12:42:51;;;;;;;;;14.50;13.75;;;;;31.64;42.20;101125.16;146613;677;46020;-76
2022/05/26 12:46:22;;;;;;;;;13.50;13.50;;;;;31.59;42.11;101119.06;146613;700;45922;-75
2022/05/26 12:50:04;;;;;;;;;13.75;13.00;;;;;31.22;41.62;101054.94;146610;570;46010;-75
2022/05/26 12:53:22;;;;;;;;;16.00;15.00;;;;;31.59;43.07;101105.66;146610;607;47012;-74
2022/05/26 12:56:20;;;;;;;;;14.75;14.00;;;;;31.56;41.56;101103.06;146613;563;46010;-74
2022/05/26 12:59:17;;;;;;;;;12.00;12.00;;;;;31.55;41.12;101108.47;146606;565;45017;-74
2022/05/26 13:02:09;;;;;;;;;13.25;12.25;;;;;31.56;41.12;101103.06;146613;581;46030;-75
2022/05/26 13:05:01;;;;;;;;;16.50;13.75;;;;;31.64;41.87;101094.78;146611;564;46015;-76
2022/05/26 13:07:57;;;;;;;;;13.25;11.75;;;;;31.78;41.53;101100.63;146612;595;47010;-75
2022/05/26 13:10:53;;;;;;;;;12.25;12.25;;;;;31.88;41.32;101093.16;146616;676;46016;-77
2022/05/26 13:13:59;;;;;;;;;11.50;11.25;;;;;32.00;39.04;101090.13;146614;582;46021;-75
2022/05/26 13:16:51;;;;;;;;;15.00;12.50;;;;;32.05;41.16;101095.34;146611;628;46016;-75
2022/05/26 13:20:05;;;;;;;;;12.75;11.00;;;;;32.14;41.66;101090.53;146607;592;46020;-75
2022/05/26 13:22:57;;;;;;;;;14.50;13.00;;;;;32.29;41.01;101093.66;146613;587;46012;-75
2022/05/26 13:25:49;;;;;;;;;13.50;12.75;;;;;32.36;40.92;101089.84;146603;608;46917;-76
2022/05/26 13:28:49;;;;;;;;;12.75;11.50;;;;;32.38;38.98;101080.81;146613;640;46016;-75
2022/05/26 13:34:59;;;;;;;;;13.75;13.75;;;;;32.48;40.00;101086.78;146605;622;46017;-76
2022/05/26 13:37:51;;;;;;;;;12.75;11.50;;;;;32.48;40.39;101084.09;146612;600;46020;-76
2022/05/26 13:40:43;;;;;;;;;10.25;10.25;;;;;32.45;39.44;101073.47;146612;683;46016;-76
2022/05/26 13:43:38;;;;;;;;;11.00;10.00;;;;;32.42;40.01;101079.75;146611;630;46021;-76
2022/05/26 13:46:44;;;;;;;;;15.50;13.75;;;;;32.37;38.52;101073.69;146611;569;46012;-75
2022/05/26 13:49:39;;;;;;;;;10.25;10.25;;;;;32.33;39.38;101071.16;146607;580;46010;-76
2022/05/26 13:52:34;;;;;;;;;13.25;12.00;;;;;32.29;39.07;101067.69;146608;616;47014;-74
2022/05/26 13:55:29;;;;;;;;;10.75;9.00;;;;;32.33;39.49;101068.47;146615;695;46020;-76
2022/05/26 13:58:22;;;;;;;;;7.75;7.75;;;;;32.32;37.34;101062.22;146620;681;46012;-75
2022/05/26 14:01:16;;;;;;;;;10.50;10.25;;;;;32.36;39.39;101068.38;146617;633;46010;-75
2022/05/26 14:04:09;;;;;;;;;10.00;10.00;;;;;32.29;39.26;101061.47;146612;573;46016;-75
2022/05/26 14:07:01;;;;;;;;;10.25;10.25;;;;;32.24;39.37;101055.38;146614;593;46010;-75
2022/05/26 14:10:05;;;;;;;;;12.25;11.00;;;;;32.22;39.39;101054.56;146612;570;46016;-75
2022/05/26 14:13:07;;;;;;;;;10.75;9.00;;;;;32.22;39.21;101062.59;146618;638;45021;-76
2022/05/26 14:16:22;;;;;;;;;11.50;11.00;;;;;31.64;41.01;100952.72;146608;660;46016;-74
2022/05/26 14:19:22;;;;;;;;;12.75;11.75;;;;;32.16;40.61;101045.78;146613;600;46012;-75
2022/05/26 14:22:14;;;;;;;;;10.75;10.50;;;;;32.22;40.84;101043.81;146610;662;46016;-76
2022/05/26 14:25:07;;;;;;;;;13.25;10.25;;;;;32.28;39.74;101049.84;146612;611;46021;-77
2022/05/26 14:28:05;;;;;;;;;10.25;10.25;;;;;32.31;40.87;101036.34;146608;565;46016;-75
2022/05/26 14:30:57;;;;;;;;;13.25;11.25;;;;;32.35;40.14;101039.78;146612;715;46020;-76
2022/05/26 14:34:45;;;;;;;;;10.25;9.75;;;;;32.33;38.80;101047.00;146607;629;47014;-76
2022/05/26 14:37:37;;;;;;;;;12.00;11.00;;;;;32.30;40.73;101037.25;146611;691;46010;-75
2022/05/26 14:40:29;;;;;;;;;7.75;7.75;;;;;32.30;40.61;101033.69;146613;569;46017;-76
2022/05/26 14:43:25;;;;;;;;;11.00;10.75;;;;;32.27;38.82;101023.06;146610;580;46010;-75
2022/05/26 14:46:17;;;;;;;;;10.75;10.00;;;;;31.40;39.90;100885.59;146604;564;47014;-75
2022/05/26 14:49:09;;;;;;;;;8.50;8.50;;;;;32.20;39.67;101030.44;146613;583;46021;-76
2022/05/26 14:52:01;;;;;;;;;14.00;10.25;;;;;32.06;38.09;101030.91;146605;652;46921;-75
2022/05/26 14:58:13;;;;;;;;;10.75;9.50;;;;;31.81;39.25;101025.44;146613;611;46014;-75
2022/05/26 15:01:06;;;;;;;;;9.50;9.50;;;;;31.79;41.00;101023.75;146614;722;46020;-76
2022/05/26 15:03:59;;;;;;;;;12.25;10.25;;;;;31.76;40.11;101027.37;146617;600;46012;-75
2022/05/26 15:06:52;;;;;;;;;11.25;10.00;;;;;31.79;41.45;101021.94;146612;592;46020;-77
2022/05/26 15:09:45;;;;;;;;;11.75;11.25;;;;;31.85;41.84;101013.69;146605;564;46015;-75
2022/05/26 15:12:38;;;;;;;;;12.75;11.75;;;;;31.93;42.48;101016.13;146614;603;46020;-75
2022/05/26 15:15:30;;;;;;;;;12.00;11.75;;;;;32.01;42.70;101015.91;146612;569;46016;-75
2022/05/26 15:18:23;;;;;;;;;11.00;11.00;;;;;32.06;42.86;101006.78;146611;580;46010;-76
2022/05/26 15:21:14;;;;;;;;;13.75;12.25;;;;;32.12;43.10;101005.66;146606;584;46012;-75
2022/05/26 15:24:07;;;;;;;;;12.00;11.50;;;;;32.07;43.14;101003.16;146610;591;46012;-76
2022/05/26 15:27:01;;;;;;;;;13.50;11.75;;;;;32.03;43.39;101014.94;146612;649;46013;-75
2022/05/26 15:29:54;;;;;;;;;12.00;10.25;;;;;31.91;43.78;101007.28;146614;597;46020;-76
2022/05/26 15:32:48;;;;;;;;;12.25;10.50;;;;;31.82;44.09;101010.22;146612;648;46017;-74